Time;durP1;ratioP1;P1;durP2;ratioP2;P2;SDS_P1;SDS_P2;PMS_P1;PMS_P2;Temp;Humidity;BMP_temperature;BMP_pressure;BME280_temperature;BME280_humidity;BME280_pressure;Samples;Min_cycle;Max_cycle;Signal;HPM_P1;HPM_P2
2024/03/02 00:01:15;;;;;;;8.93;3.17;;;7.10;99.90;;;;;;4976666;28;20033;-88
2024/03/02 00:03:43;;;;;;;9.20;3.72;;;9.40;99.90;;;;;;4995515;28;20019;-87
2024/03/02 00:06:09;;;;;;;6.55;3.20;;;10.10;99.90;;;;;;4977621;28;20145;-89
2024/03/02 00:08:35;;;;;;;6.43;2.67;;;8.80;99.90;;;;;;4995775;28;20039;-88
2024/03/02 00:11:07;;;;;;;5.68;2.70;;;10.40;99.90;;;;;;4993187;28;20030;-87
2024/03/02 00:13:34;;;;;;;5.57;2.78;;;8.10;99.90;;;;;;4978896;28;20086;-88
2024/03/02 00:16:00;;;;;;;6.20;2.10;;;9.10;99.90;;;;;;4994283;28;20074;-88
2024/03/02 00:18:34;;;;;;;5.43;2.55;;;8.10;99.90;;;;;;4975690;28;20034;-87
2024/03/02 00:21:00;;;;;;;4.13;2.08;;;8.10;99.90;;;;;;4968508;28;20030;-87
2024/03/02 00:23:34;;;;;;;5.30;2.70;;;8.10;99.90;;;;;;4995471;28;20022;-88
2024/03/02 00:26:00;;;;;;;5.93;3.38;;;8.10;99.90;;;;;;4963186;28;20016;-86
2024/03/02 00:28:33;;;;;;;6.47;2.72;;;8.10;99.90;;;;;;4980580;28;20083;-85
2024/03/02 00:31:05;;;;;;;5.68;2.70;;;8.00;99.90;;;;;;4994780;28;20011;-89
2024/03/02 00:34:23;;;;;;;6.38;2.83;;;;;;;;;;4991936;28;20019;-89
2024/03/02 00:36:30;;;;;;;6.10;2.17;;;;;;;;;;4984984;28;20086;-86
2024/03/02 00:38:56;;;;;;;5.28;2.30;;;;;;;;;;4994068;28;20069;-87
2024/03/02 00:41:32;;;;;;;5.32;2.20;;;;;;;;;;4994708;28;20038;-87
2024/03/02 00:43:58;;;;;;;4.18;1.95;;;;;;;;;;4993637;28;20025;-89
2024/03/02 00:46:24;;;;;;;5.28;2.10;;;;;;;;;;4995023;28;20043;-89
2024/03/02 00:48:54;;;;;;;4.35;2.03;;;;;;;;;;4996860;28;20061;-89
2024/03/02 00:51:20;;;;;;;3.70;1.98;;;;;;;;;;4989732;28;20031;-88
2024/03/02 00:53:46;;;;;;;3.35;2.00;;;;;;;;;;4979174;28;20007;-88
2024/03/02 00:56:13;;;;;;;3.80;2.10;;;;;;;;;;4991860;28;20011;-88
2024/03/02 00:58:40;;;;;;;3.17;1.67;;;;;;;;;;4997434;28;20887;-84
2024/03/02 01:01:07;;;;;;;5.30;2.10;;;;;;;;;;4993944;28;20023;-87
2024/03/02 01:03:34;;;;;;;4.10;2.33;;;8.20;99.90;;;;;;4994754;28;20090;-89
2024/03/02 01:06:23;;;;;;;4.28;1.98;;;8.20;99.90;;;;;;4983790;28;20094;-89
2024/03/02 01:08:51;;;;;;;4.50;2.38;;;8.30;99.90;;;;;;4983534;28;20034;-88
2024/03/02 01:11:17;;;;;;;6.85;2.25;;;8.20;99.90;;;;;;4994488;28;20015;-87
2024/03/02 01:13:44;;;;;;;5.05;2.22;;;8.20;99.90;;;;;;4979856;28;20059;-90
2024/03/02 01:16:09;;;;;;;5.22;1.90;;;7.90;99.90;;;;;;4984364;28;20018;-89
2024/03/02 01:18:35;;;;;;;4.78;2.15;;;9.50;99.90;;;;;;4994257;28;20027;-90
2024/03/02 01:21:01;;;;;;;5.20;1.95;;;8.10;99.90;;;;;;4977209;28;20045;-89
2024/03/02 01:23:27;;;;;;;3.35;1.70;;;8.10;99.90;;;;;;4993946;28;20334;-89
2024/03/02 01:25:53;;;;;;;2.83;1.67;;;8.90;99.90;;;;;;4997675;28;20038;-89
2024/03/02 01:28:20;;;;;;;3.70;1.70;;;8.30;99.90;;;;;;4987818;28;20022;-87
2024/03/02 01:30:46;;;;;;;3.33;1.58;;;9.20;99.90;;;;;;4987114;28;20007;-89
2024/03/02 01:33:11;;;;;;;4.10;1.60;;;8.20;99.90;;;;;;4980101;28;20030;-88
2024/03/02 01:35:37;;;;;;;3.45;1.70;;;10.20;99.90;;;;;;4977780;28;20017;-89
2024/03/02 01:38:03;;;;;;;2.90;1.60;;;8.40;99.90;;;;;;4976175;28;20011;-89
2024/03/02 01:40:29;;;;;;;3.92;1.70;;;8.30;99.90;;;;;;4980075;28;20020;-88
2024/03/02 01:42:55;;;;;;;2.92;1.60;;;9.10;99.90;;;;;;4994128;28;20038;-89
2024/03/02 01:45:21;;;;;;;3.58;1.58;;;8.30;99.90;;;;;;4988011;28;20078;-89
2024/03/02 01:47:47;;;;;;;4.15;1.50;;;9.80;99.90;;;;;;4981439;28;20027;-87
2024/03/02 01:50:13;;;;;;;3.75;1.77;;;8.30;99.90;;;;;;4991672;28;20050;-89
2024/03/02 01:52:39;;;;;;;2.88;1.38;;;8.40;99.90;;;;;;4975806;28;20023;-88
2024/03/02 01:55:06;;;;;;;5.30;1.90;;;8.40;99.90;;;;;;4994155;28;20026;-88
2024/03/02 01:57:33;;;;;;;3.92;1.92;;;8.40;99.90;;;;;;4998257;28;20014;-86
2024/03/02 02:00:00;;;;;;;4.38;1.85;;;8.20;99.90;;;;;;4975169;28;20023;-90
2024/03/02 02:02:26;;;;;;;3.40;1.52;;;8.70;99.90;;;;;;4993802;28;20030;-87
2024/03/02 02:04:52;;;;;;;3.72;1.40;;;8.40;99.90;;;;;;4978529;28;20023;-87
2024/03/02 02:07:21;;;;;;;5.25;2.03;;;8.30;99.90;;;;;;4977883;28;20030;-86
2024/03/02 02:09:46;;;;;;;3.00;1.83;;;9.70;99.90;;;;;;4990840;28;20038;-86
2024/03/02 02:12:12;;;;;;;4.55;1.80;;;8.20;99.90;;;;;;4989278;28;20015;-86
2024/03/02 02:14:39;;;;;;;4.50;1.58;;;8.30;99.90;;;;;;4977929;28;20021;-87
2024/03/02 02:17:06;;;;;;;2.30;1.30;;;8.20;99.90;;;;;;4992874;28;20019;-89
2024/03/02 02:19:31;;;;;;;2.58;1.45;;;8.20;99.90;;;;;;4992994;28;20033;-86
2024/03/02 02:21:57;;;;;;;3.08;1.45;;;9.20;99.90;;;;;;4975512;28;20110;-89
2024/03/02 02:24:23;;;;;;;2.83;1.45;;;8.20;99.90;;;;;;4994550;28;20058;-87
2024/03/02 02:26:48;;;;;;;3.38;1.48;;;9.40;99.90;;;;;;4992790;28;20023;-88
2024/03/02 02:29:14;;;;;;;3.88;1.92;;;8.70;99.90;;;;;;4991004;28;20049;-87
2024/03/02 02:31:40;;;;;;;3.22;1.45;;;9.30;99.90;;;;;;4979004;28;20034;-87
2024/03/02 02:34:06;;;;;;;4.18;1.30;;;9.40;99.90;;;;;;4979245;28;20544;-87
2024/03/02 02:36:38;;;;;;;4.13;1.48;;;8.50;99.90;;;;;;4994841;28;20018;-88
2024/03/02 02:39:06;;;;;;;2.95;1.50;;;10.10;99.90;;;;;;4996085;28;21142;-89
2024/03/02 02:41:32;;;;;;;2.20;1.30;;;9.50;99.90;;;;;;4993337;28;20045;-88
2024/03/02 02:43:58;;;;;;;3.63;1.40;;;7.00;99.90;;;;;;4976712;28;20073;-89
2024/03/02 02:46:23;;;;;;;3.72;1.60;;;9.20;99.90;;;;;;4984644;28;20027;-88
2024/03/02 02:48:50;;;;;;;2.55;1.40;;;8.30;99.90;;;;;;4995750;28;20129;-88
2024/03/02 02:51:16;;;;;;;3.75;1.60;;;9.40;99.90;;;;;;4993985;28;20041;-88
2024/03/02 02:53:43;;;;;;;4.32;2.00;;;9.60;99.90;;;;;;4996827;28;20083;-90
2024/03/02 02:56:08;;;;;;;3.30;1.58;;;10.70;99.90;;;;;;4993670;28;20033;-87
2024/03/02 02:58:34;;;;;;;2.60;1.33;;;8.60;99.90;;;;;;4993274;28;20046;-85
2024/03/02 03:01:00;;;;;;;2.80;1.20;;;8.50;99.90;;;;;;4977717;28;20010;-85
2024/03/02 03:03:25;;;;;;;2.67;1.27;;;8.40;99.90;;;;;;5000620;28;20014;-87
2024/03/02 03:05:54;;;;;;;3.40;1.20;;;8.50;99.90;;;;;;4999612;28;20033;-87
2024/03/02 03:08:19;;;;;;;3.15;1.38;;;10.70;99.90;;;;;;4995493;28;21166;-89
2024/03/02 03:10:45;;;;;;;3.03;1.40;;;9.60;99.90;;;;;;4994991;28;20037;-86
2024/03/02 03:13:11;;;;;;;3.75;1.30;;;8.50;99.90;;;;;;4998199;28;20039;-90
2024/03/02 03:15:37;;;;;;;3.25;1.33;;;8.50;99.90;;;;;;4994121;28;20070;-89
2024/03/02 03:18:04;;;;;;;1.92;1.27;;;8.60;99.90;;;;;;4985815;28;20039;-88
2024/03/02 03:20:33;;;;;;;2.92;1.33;;;8.60;99.90;;;;;;4994370;28;20031;-88
2024/03/02 03:22:59;;;;;;;3.17;1.10;;;8.60;99.90;;;;;;4975867;28;20091;-85
2024/03/02 03:25:25;;;;;;;4.15;1.30;;;10.70;99.90;;;;;;4976774;28;20070;-91
2024/03/02 03:27:53;;;;;;;1.90;1.20;;;7.70;99.90;;;;;;4989085;28;20034;-86
2024/03/02 03:30:19;;;;;;;2.90;1.30;;;10.40;99.90;;;;;;4976104;28;20031;-88
2024/03/02 03:32:45;;;;;;;3.13;1.30;;;9.80;99.90;;;;;;4993482;28;20083;-86
2024/03/02 03:35:12;;;;;;;2.58;1.00;;;8.80;99.90;;;;;;4994272;28;20046;-89
2024/03/02 03:37:38;;;;;;;3.30;1.30;;;9.00;99.90;;;;;;4988023;28;20086;-86
2024/03/02 03:40:09;;;;;;;2.45;1.20;;;7.00;99.90;;;;;;4973158;28;20027;-86
2024/03/02 03:42:35;;;;;;;2.35;1.05;;;8.80;99.90;;;;;;4992350;28;20023;-88
2024/03/02 03:45:01;;;;;;;1.80;1.00;;;10.60;99.90;;;;;;4977323;28;20026;-87
2024/03/02 03:47:27;;;;;;;4.10;1.10;;;8.90;99.90;;;;;;4992596;28;20034;-84
2024/03/02 03:49:52;;;;;;;4.28;1.60;;;9.70;99.90;;;;;;4990097;28;20039;-87
2024/03/02 03:52:18;;;;;;;2.42;1.33;;;9.40;99.90;;;;;;4991257;28;20054;-86
2024/03/02 03:54:44;;;;;;;2.47;1.17;;;11.20;99.90;;;;;;4975495;28;20016;-88
2024/03/02 03:57:10;;;;;;;2.78;1.17;;;9.60;99.90;;;;;;4991464;28;20043;-87
2024/03/02 03:59:37;;;;;;;2.53;1.20;;;9.00;99.90;;;;;;4971091;28;20030;-88
2024/03/02 04:02:03;;;;;;;3.30;1.08;;;9.00;99.90;;;;;;4994599;28;20042;-89
2024/03/02 04:04:31;;;;;;;2.30;1.10;;;9.00;99.90;;;;;;4956154;28;20118;-87
2024/03/02 04:06:57;;;;;;;1.48;0.85;;;9.00;99.90;;;;;;4975918;28;20007;-87
2024/03/02 04:09:22;;;;;;;2.22;1.30;;;;;;;;;;4978246;28;20033;-88
2024/03/02 04:11:48;;;;;;;1.88;1.10;;;9.10;99.90;;;;;;4992404;28;20038;-87
2024/03/02 04:14:14;;;;;;;2.65;1.10;;;;;;;;;;4978373;28;20053;-87
2024/03/02 04:16:40;;;;;;;2.45;1.20;;;9.10;99.90;;;;;;4991240;28;20015;-90
2024/03/02 04:19:05;;;;;;;2.85;1.20;;;9.10;99.90;;;;;;4988950;28;20018;-86
2024/03/02 04:21:32;;;;;;;1.45;0.90;;;;;;;;;;4976049;28;20031;-90
2024/03/02 04:23:58;;;;;;;3.28;1.33;;;9.20;99.90;;;;;;4989549;28;21163;-90
2024/03/02 04:26:25;;;;;;;1.63;0.95;;;11.00;99.90;;;;;;4963297;28;20031;-88
2024/03/02 04:28:51;;;;;;;2.47;1.15;;;11.00;99.90;;;;;;4995151;28;20015;-87
2024/03/02 04:31:17;;;;;;;2.78;0.90;;;;;;;;;;4996839;28;20050;-88
2024/03/02 04:33:43;;;;;;;3.22;1.17;;;;;;;;;;4992655;28;20039;-89
2024/03/02 04:36:09;;;;;;;2.97;1.08;;;;;;;;;;4971917;28;20023;-88
2024/03/02 04:38:36;;;;;;;3.08;1.10;;;;;;;;;;4994121;28;20042;-88
2024/03/02 04:41:02;;;;;;;2.78;1.15;;;;;;;;;;4991388;28;20050;-89
2024/03/02 04:43:28;;;;;;;3.28;1.15;;;;;;;;;;4991529;28;20019;-88
2024/03/02 04:45:55;;;;;;;3.40;1.23;;;9.20;99.90;;;;;;4995201;28;20438;-90
2024/03/02 04:48:22;;;;;;;1.60;0.80;;;10.50;99.90;;;;;;4977829;28;20023;-89
2024/03/02 04:50:47;;;;;;;5.00;1.50;;;9.20;99.90;;;;;;4989669;28;20019;-87
2024/03/02 04:53:13;;;;;;;1.42;0.90;;;9.20;99.90;;;;;;4975416;28;20514;-87
2024/03/02 04:58:05;;;;;;;2.83;1.10;;;9.20;99.90;;;;;;4991950;28;20031;-87
2024/03/02 05:00:31;;;;;;;2.28;1.25;;;10.10;99.90;;;;;;4980364;28;20043;-86
2024/03/02 05:02:56;;;;;;;2.97;1.20;;;9.40;99.90;;;;;;4975408;28;20037;-88
2024/03/02 05:05:22;;;;;;;2.78;1.23;;;9.10;99.90;;;;;;4991592;28;20023;-86
2024/03/02 05:07:50;;;;;;;3.95;1.17;;;9.10;99.90;;;;;;4981654;28;20019;-88
2024/03/02 05:10:16;;;;;;;2.83;1.10;;;9.00;99.90;;;;;;4993431;28;20026;-89
2024/03/02 05:15:09;;;;;;;3.08;1.30;;;10.90;99.90;;;;;;4991027;28;20078;-88
2024/03/02 05:17:36;;;;;;;2.65;1.00;;;8.90;99.90;;;;;;4979640;28;20107;-88
2024/03/02 05:20:02;;;;;;;1.90;1.00;;;9.00;99.90;;;;;;4975464;28;20015;-89
2024/03/02 05:22:28;;;;;;;2.70;1.20;;;9.10;99.90;;;;;;4992067;28;20059;-88
2024/03/02 05:24:54;;;;;;;2.65;1.10;;;9.30;99.90;;;;;;4990527;28;20030;-88
2024/03/02 05:27:20;;;;;;;4.35;1.48;;;11.00;99.90;;;;;;4992099;28;20047;-89
2024/03/02 05:29:46;;;;;;;2.25;1.20;;;10.70;99.90;;;;;;4992403;28;20037;-88
2024/03/02 05:32:12;;;;;;;2.58;1.13;;;10.70;99.90;;;;;;4994365;28;20190;-85
2024/03/02 05:34:38;;;;;;;3.53;1.15;;;9.80;99.90;;;;;;4988939;28;20039;-88
2024/03/02 05:37:04;;;;;;;4.13;1.40;;;;;;;;;;4994486;28;20045;-87
2024/03/02 05:39:29;;;;;;;4.57;1.15;;;8.90;99.90;;;;;;4994229;28;20018;-89
2024/03/02 05:41:55;;;;;;;1.63;1.05;;;;;;;;;;4975917;28;20050;-88
2024/03/02 05:44:22;;;;;;;3.15;1.30;;;9.00;99.90;;;;;;4992510;28;20082;-89
2024/03/02 05:46:48;;;;;;;6.25;1.15;;;;;;;;;;4977329;28;20090;-87
2024/03/02 05:49:14;;;;;;;1.65;1.00;;;9.00;99.90;;;;;;4992771;28;20038;-87
2024/03/02 05:51:40;;;;;;;3.17;1.10;;;;;;;;;;4991600;28;20082;-87
2024/03/02 05:54:05;;;;;;;4.85;1.17;;;9.00;99.90;;;;;;4977571;28;20019;-88
2024/03/02 05:56:32;;;;;;;2.38;1.20;;;;;;;;;;4998616;28;20046;-89
2024/03/02 05:59:07;;;;;;;3.70;1.17;;;8.90;99.90;;;;;;4992657;28;20438;-91
2024/03/02 06:01:33;;;;;;;2.80;1.00;;;10.30;99.90;;;;;;4973752;28;20045;-88
2024/03/02 06:04:01;;;;;;;2.03;1.13;;;;;;;;;;4979008;28;20015;-87
2024/03/02 06:06:26;;;;;;;3.90;1.20;;;8.90;99.90;;;;;;4993174;28;20047;-88
2024/03/02 06:08:52;;;;;;;3.75;1.10;;;;;;;;;;4982425;28;20017;-84
2024/03/02 06:11:21;;;;;;;3.00;1.00;;;8.90;99.90;;;;;;4993986;28;20094;-89
2024/03/02 06:13:47;;;;;;;3.08;1.00;;;;;;;;;;4990686;28;20544;-88
2024/03/02 06:16:13;;;;;;;3.15;1.10;;;;;;;;;;4977685;28;20049;-90
2024/03/02 06:18:39;;;;;;;1.67;0.95;;;;;;;;;;4993519;28;20015;-88
2024/03/02 06:21:05;;;;;;;3.28;1.15;;;;;;;;;;4992474;28;20339;-89
2024/03/02 06:23:32;;;;;;;14.90;1.80;;;8.90;99.90;;;;;;4985085;28;20015;-89
2024/03/02 06:25:58;;;;;;;2.35;1.00;;;;;;;;;;4989194;28;20019;-90
2024/03/02 06:28:24;;;;;;;2.13;1.02;;;;;;;;;;4993102;28;20038;-89
2024/03/02 06:30:49;;;;;;;3.35;1.25;;;8.90;99.90;;;;;;4993876;28;20030;-86
2024/03/02 06:33:15;;;;;;;4.65;1.27;;;8.90;99.90;;;;;;4989660;28;20030;-86
2024/03/02 06:35:41;;;;;;;3.72;2.03;;;9.90;99.90;;;;;;4975442;28;20090;-87
2024/03/02 06:38:07;;;;;;;3.15;1.50;;;;;;;;;;4987725;28;20037;-89
2024/03/02 06:40:33;;;;;;;4.18;1.50;;;8.90;99.90;;;;;;4975290;28;20043;-88
2024/03/02 06:42:59;;;;;;;4.35;1.52;;;11.70;99.90;;;;;;4973042;28;20031;-91
2024/03/02 06:45:25;;;;;;;3.40;1.50;;;;;;;;;;4967728;28;20046;-90
2024/03/02 06:47:51;;;;;;;6.43;1.55;;;;;;;;;;4969156;28;20025;-88
2024/03/02 06:50:17;;;;;;;4.38;1.42;;;;;;;;;;4964625;28;20034;-88
2024/03/02 06:52:43;;;;;;;2.47;1.30;;;8.80;99.90;;;;;;4989550;28;20030;-87
2024/03/02 06:55:09;;;;;;;3.92;1.55;;;9.40;99.90;;;;;;4992174;28;20043;-90
2024/03/02 06:57:34;;;;;;;4.47;1.48;;;9.90;99.90;;;;;;4973777;28;20025;-87
2024/03/02 07:00:01;;;;;;;6.10;1.77;;;;;;;;;;4974495;28;20026;-88
2024/03/02 07:02:27;;;;;;;5.07;1.70;;;;;;;;;;4992472;28;20530;-89
2024/03/02 07:04:54;;;;;;;3.67;1.38;;;8.80;99.90;;;;;;4987889;28;20038;-90
2024/03/02 07:07:20;;;;;;;2.50;1.30;;;;;;;;;;4989010;28;20030;-91
2024/03/02 07:09:46;;;;;;;3.45;1.50;;;;;;;;;;4992093;28;20038;-87
2024/03/02 07:12:12;;;;;;;6.65;1.50;;;8.80;99.90;;;;;;4985140;28;20082;-88
2024/03/02 07:14:56;;;;;;;2.92;1.67;;;;;;;;;;4975539;28;20127;-85
2024/03/02 07:17:22;;;;;;;3.42;1.70;;;8.80;99.90;;;;;;4988239;28;20031;-89
2024/03/02 07:19:48;;;;;;;3.42;1.55;;;8.90;99.90;;;;;;4983499;28;20378;-89
2024/03/02 07:22:13;;;;;;;3.58;1.50;;;8.90;99.90;;;;;;4988336;28;20369;-87
2024/03/02 07:24:43;;;;;;;3.13;1.40;;;8.90;99.90;;;;;;4967896;28;20042;-90
2024/03/02 07:27:12;;;;;;;3.33;1.48;;;8.90;99.90;;;;;;4984198;28;20027;-90
2024/03/02 07:29:38;;;;;;;3.25;1.50;;;9.80;99.90;;;;;;4964977;28;20046;-89
2024/03/02 07:32:05;;;;;;;3.33;1.55;;;12.70;99.90;;;;;;4961077;28;20023;-92
2024/03/02 07:34:31;;;;;;;3.25;1.70;;;8.90;99.90;;;;;;4962858;28;20038;-88
2024/03/02 07:36:57;;;;;;;3.20;1.63;;;;;;;;;;4960993;28;20015;-90
2024/03/02 07:39:23;;;;;;;4.75;2.10;;;8.90;99.90;;;;;;4975716;28;20030;-89
2024/03/02 07:41:49;;;;;;;4.57;1.95;;;8.90;99.90;;;;;;4962677;28;20033;-90
2024/03/02 07:44:15;;;;;;;4.00;1.98;;;;;;;;;;4970390;28;20118;-91
2024/03/02 07:46:42;;;;;;;5.60;1.98;;;8.90;99.90;;;;;;4977806;28;20027;-88
2024/03/02 07:49:09;;;;;;;4.90;1.77;;;;;;;;;;4983183;28;20034;-86
2024/03/02 07:51:36;;;;;;;4.78;1.52;;;;;;;;;;4982844;28;20041;-88
2024/03/02 07:54:02;;;;;;;4.45;1.70;;;9.00;99.90;;;;;;4969703;28;20020;-88
2024/03/02 07:56:28;;;;;;;5.30;1.70;;;;;;;;;;4986879;28;20026;-88
2024/03/02 07:58:54;;;;;;;4.95;1.80;;;;;;;;;;4976574;28;20018;-88
2024/03/02 08:01:20;;;;;;;3.55;1.60;;;;;;;;;;4976173;28;20027;-88
2024/03/02 08:03:50;;;;;;;6.45;1.90;;;;;;;;;;4988554;28;20042;-89
2024/03/02 08:06:17;;;;;;;4.25;1.80;;;9.10;99.90;;;;;;4983709;28;20031;-88
2024/03/02 08:08:43;;;;;;;3.33;1.50;;;9.10;99.90;;;;;;4985941;28;20022;-89
2024/03/02 08:11:09;;;;;;;2.97;1.45;;;;;;;;;;4988124;28;21101;-89
2024/03/02 08:13:35;;;;;;;3.17;1.60;;;;;;;;;;4969567;28;20026;-90
2024/03/02 08:16:03;;;;;;;4.30;1.50;;;9.20;99.90;;;;;;4988380;28;20035;-89
2024/03/02 08:18:29;;;;;;;2.47;1.27;;;;;;;;;;4994119;28;20125;-90
2024/03/02 08:20:56;;;;;;;7.53;4.05;;;9.30;99.90;;;;;;4986632;28;20019;-89
2024/03/02 08:23:22;;;;;;;3.50;1.35;;;;;;;;;;4988635;28;20023;-89
2024/03/02 08:25:48;;;;;;;3.10;1.63;;;9.30;99.90;;;;;;4972713;28;20046;-88
2024/03/02 08:28:13;;;;;;;3.25;1.50;;;8.60;99.90;;;;;;4987555;28;20027;-88
2024/03/02 08:30:39;;;;;;;3.72;1.80;;;10.70;99.90;;;;;;4971753;28;20045;-89
2024/03/02 08:33:05;;;;;;;2.80;1.30;;;9.40;99.90;;;;;;4991063;28;20030;-87
2024/03/02 08:35:35;;;;;;;4.07;1.70;;;9.40;99.90;;;;;;4985726;28;20058;-90
2024/03/02 08:38:01;;;;;;;3.35;1.67;;;;;;;;;;4983774;28;20038;-89
2024/03/02 08:40:29;;;;;;;5.32;1.65;;;;;;;;;;4969612;28;20031;-86
2024/03/02 08:42:55;;;;;;;4.15;1.77;;;;;;;;;;4980980;28;20022;-89
2024/03/02 08:45:21;;;;;;;4.80;1.77;;;;;;;;;;4984512;28;20077;-90
2024/03/02 08:47:48;;;;;;;7.97;1.52;;;9.60;99.90;;;;;;4987484;28;20810;-88
2024/03/02 08:50:13;;;;;;;6.20;1.67;;;9.70;99.90;;;;;;4968097;28;20035;-87
2024/03/02 08:52:40;;;;;;;2.50;1.60;;;;;;;;;;4989578;28;20072;-87
2024/03/02 08:55:07;;;;;;;4.18;1.70;;;9.80;99.90;;;;;;4973954;28;20129;-87
2024/03/02 08:57:33;;;;;;;4.35;1.60;;;9.90;99.90;;;;;;4990367;28;20015;-89
2024/03/02 08:59:59;;;;;;;2.97;1.23;;;10.00;99.90;;;;;;4973365;28;20006;-90
2024/03/02 09:02:25;;;;;;;3.28;1.30;;;10.00;99.90;;;;;;4993449;28;20042;-89
2024/03/02 09:04:51;;;;;;;2.00;1.20;;;10.20;99.90;;;;;;4991232;28;20037;-90
2024/03/02 09:07:17;;;;;;;4.32;1.40;;;;;;;;;;4996941;28;20051;-89
2024/03/02 09:09:43;;;;;;;4.00;1.60;;;;;;;;;;4989797;28;20015;-89
2024/03/02 09:12:09;;;;;;;1.92;0.90;;;;;;;;;;4993045;28;20026;-88
2024/03/02 09:14:36;;;;;;;6.60;1.48;;;10.50;99.90;;;;;;4991620;28;20023;-87
2024/03/02 09:17:04;;;;;;;3.20;1.38;;;10.60;99.90;;;;;;4975195;28;20011;-89
2024/03/02 09:19:30;;;;;;;3.67;1.10;;;;;;;;;;4975901;28;20031;-86
2024/03/02 09:21:55;;;;;;;1.90;0.93;;;10.70;99.90;;;;;;4976639;28;20023;-90
2024/03/02 09:24:22;;;;;;;3.70;1.42;;;12.80;99.90;;;;;;4994428;28;20029;-90
2024/03/02 09:26:47;;;;;;;3.45;1.90;;;10.80;99.90;;;;;;4980362;28;20061;-88
2024/03/02 09:29:13;;;;;;;2.92;1.35;;;12.00;99.90;;;;;;4994156;28;20038;-89
2024/03/02 09:31:41;;;;;;;3.70;1.67;;;10.80;99.90;;;;;;4990996;28;20035;-89
2024/03/02 09:34:07;;;;;;;6.95;2.10;;;13.40;99.90;;;;;;4974534;28;20038;-89
2024/03/02 09:36:32;;;;;;;7.45;1.27;;;11.10;99.90;;;;;;4986804;28;20038;-89
2024/03/02 09:38:58;;;;;;;3.70;1.20;;;11.30;99.90;;;;;;4992641;28;20010;-88
2024/03/02 09:41:24;;;;;;;2.50;1.20;;;11.30;99.90;;;;;;4976618;28;20025;-87
2024/03/02 09:43:50;;;;;;;5.00;1.65;;;11.40;99.90;;;;;;4972564;28;20050;-91
2024/03/02 09:46:16;;;;;;;4.53;1.83;;;11.40;99.90;;;;;;4976432;28;20039;-88
2024/03/02 09:48:44;;;;;;;3.53;1.83;;;12.60;99.90;;;;;;4993603;28;20025;-89
2024/03/02 09:51:11;;;;;;;3.75;1.55;;;14.10;99.90;;;;;;4994370;28;20243;-89
2024/03/02 09:53:37;;;;;;;3.78;1.58;;;13.00;99.90;;;;;;4978400;28;20015;-89
2024/03/02 09:56:04;;;;;;;3.25;1.30;;;11.50;99.90;;;;;;4993262;28;20031;-87
2024/03/02 09:58:30;;;;;;;5.35;2.15;;;11.60;99.90;;;;;;4989163;28;20015;-86
2024/03/02 10:00:56;;;;;;;3.97;1.50;;;13.20;99.90;;;;;;4978116;28;20027;-88
2024/03/02 10:03:26;;;;;;;2.63;1.23;;;11.80;99.90;;;;;;4992646;28;20082;-89
2024/03/02 10:05:52;;;;;;;2.83;1.20;;;11.70;99.90;;;;;;4987236;28;20030;-89
2024/03/02 10:08:18;;;;;;;2.47;1.13;;;11.90;99.90;;;;;;4989217;28;20022;-86
2024/03/02 10:10:44;;;;;;;1.52;0.93;;;11.70;99.90;;;;;;4979453;28;20038;-89
2024/03/02 10:13:13;;;;;;;2.42;1.00;;;12.00;99.90;;;;;;4994263;28;20023;-89
2024/03/02 10:15:40;;;;;;;2.17;1.10;;;12.20;99.90;;;;;;4991846;28;20025;-90
2024/03/02 10:18:11;;;;;;;2.63;1.10;;;13.10;99.90;;;;;;4993073;28;20038;-88
2024/03/02 10:20:38;;;;;;;2.72;0.85;;;12.40;99.90;;;;;;4991433;28;20041;-88
2024/03/02 10:23:15;;;;;;;1.50;0.88;;;12.50;99.90;;;;;;4989853;28;20078;-88
2024/03/02 10:25:41;;;;;;;4.25;1.02;;;12.60;99.90;;;;;;4984408;28;20114;-89
2024/03/02 10:28:07;;;;;;;3.22;1.30;;;15.00;99.90;;;;;;4976974;28;20027;-88
2024/03/02 10:30:36;;;;;;;2.70;0.95;;;12.70;99.90;;;;;;4975411;28;20065;-90
2024/03/02 10:33:03;;;;;;;1.80;1.05;;;12.60;99.90;;;;;;4990529;28;20027;-88
2024/03/02 10:35:36;;;;;;;1.10;0.80;;;12.60;99.90;;;;;;4981458;28;20018;-88
2024/03/02 10:38:04;;;;;;;1.88;1.20;;;12.70;99.90;;;;;;4975440;28;20037;-88
2024/03/02 10:40:30;;;;;;;2.30;1.00;;;12.60;99.90;;;;;;4992652;28;20031;-89
2024/03/02 10:42:57;;;;;;;3.72;1.40;;;12.80;99.90;;;;;;4985522;28;20055;-86
2024/03/02 10:45:24;;;;;;;42.00;3.83;;;12.80;99.90;;;;;;4981089;28;20030;-87
2024/03/02 10:47:50;;;;;;;3.83;1.10;;;13.10;99.90;;;;;;4970445;28;20026;-88
2024/03/02 10:50:16;;;;;;;2.78;1.33;;;13.20;99.90;;;;;;4984582;28;20039;-85
2024/03/02 10:52:42;;;;;;;2.10;1.23;;;13.30;99.90;;;;;;4987522;28;20040;-90
2024/03/02 10:55:12;;;;;;;3.17;1.10;;;13.30;99.90;;;;;;4978908;28;20027;-88
2024/03/02 10:57:49;;;;;;;1.70;0.90;;;13.30;99.90;;;;;;4988735;28;20039;-87
2024/03/02 11:00:15;;;;;;;3.08;1.65;;;13.50;99.90;;;;;;4986025;28;20046;-87
2024/03/02 11:02:50;;;;;;;1.60;1.00;;;13.40;99.90;;;;;;4984479;28;20039;-89
2024/03/02 11:05:21;;;;;;;2.08;0.90;;;15.00;99.90;;;;;;4949088;28;20039;-89
2024/03/02 11:07:47;;;;;;;1.55;1.00;;;13.50;99.90;;;;;;4987495;28;20124;-87
2024/03/02 11:10:14;;;;;;;2.80;0.88;;;13.60;99.90;;;;;;4986674;28;20051;-89
2024/03/02 11:12:53;;;;;;;1.52;0.93;;;14.00;99.90;;;;;;4969806;28;20022;-86
2024/03/02 11:15:19;;;;;;;2.60;0.77;;;13.40;99.90;;;;;;4983149;28;20041;-89
2024/03/02 11:17:46;;;;;;;2.28;0.98;;;14.00;99.90;;;;;;4981415;28;20057;-89
2024/03/02 11:20:12;;;;;;;1.88;0.95;;;13.60;99.90;;;;;;4982367;28;20172;-90
2024/03/02 11:22:38;;;;;;;1.45;0.93;;;14.00;99.90;;;;;;4986587;28;20032;-90
2024/03/02 11:25:05;;;;;;;2.20;1.00;;;14.10;99.90;;;;;;4981593;28;20485;-86
2024/03/02 11:27:46;;;;;;;3.05;1.13;;;14.00;99.90;;;;;;4981694;28;20034;-88
2024/03/02 11:30:33;;;;;;;3.55;1.30;;;14.00;99.90;;;;;;4982224;28;20038;-88
2024/03/02 11:33:10;;;;;;;2.20;1.10;;;14.20;99.90;;;;;;4984398;28;20026;-91
2024/03/02 11:35:43;;;;;;;2.67;1.77;;;14.40;99.90;;;;;;4966382;28;20035;-87
2024/03/02 11:38:09;;;;;;;2.35;1.52;;;15.70;99.90;;;;;;4959528;28;20039;-89
2024/03/02 11:40:35;;;;;;;1.85;1.00;;;14.50;99.90;;;;;;4958273;28;20039;-85
2024/03/02 11:43:01;;;;;;;1.45;0.80;;;14.60;99.90;;;;;;4979145;28;20101;-86
2024/03/02 11:45:27;;;;;;;2.40;1.10;;;15.30;99.90;;;;;;4988032;28;20038;-85
2024/03/02 11:47:57;;;;;;;2.28;1.10;;;14.30;99.90;;;;;;4965640;28;20153;-90
2024/03/02 11:50:30;;;;;;;3.42;1.60;;;14.20;99.90;;;;;;4979530;28;20031;-87
2024/03/02 11:52:58;;;;;;;1.55;0.88;;;15.60;99.90;;;;;;4988851;28;20042;-89
2024/03/02 11:55:25;;;;;;;2.17;0.70;;;13.90;99.90;;;;;;4996994;28;20098;-89
2024/03/02 11:57:52;;;;;;;3.13;1.00;;;14.00;99.90;;;;;;4988158;28;20076;-88
2024/03/02 12:00:19;;;;;;;3.22;1.85;;;14.20;99.90;;;;;;4980199;28;20027;-89
2024/03/02 12:02:49;;;;;;;2.63;1.20;;;16.10;99.90;;;;;;4996103;28;20015;-87
2024/03/02 12:05:19;;;;;;;2.15;1.17;;;14.60;99.90;;;;;;4969653;28;20052;-87
2024/03/02 12:07:46;;;;;;;2.60;0.90;;;14.70;99.90;;;;;;4976435;28;20026;-87
2024/03/02 12:10:12;;;;;;;2.50;0.90;;;15.10;99.90;;;;;;4983112;28;20096;-87
2024/03/02 12:12:38;;;;;;;2.33;0.75;;;14.80;99.90;;;;;;4992471;28;20366;-87
2024/03/02 12:15:04;;;;;;;1.77;0.90;;;14.70;99.90;;;;;;4992142;28;20019;-89
2024/03/02 12:17:30;;;;;;;1.95;0.90;;;14.70;99.90;;;;;;4994330;28;20034;-90
2024/03/02 12:19:55;;;;;;;1.33;1.00;;;16.10;99.90;;;;;;4977552;28;20050;-87
2024/03/02 12:22:21;;;;;;;1.50;0.80;;;15.00;99.90;;;;;;4973529;28;20011;-88
2024/03/02 12:24:47;;;;;;;1.30;0.90;;;14.50;99.90;;;;;;4985719;28;20071;-87
2024/03/02 12:27:15;;;;;;;2.17;1.20;;;14.20;99.90;;;;;;4988524;28;20026;-90
2024/03/02 12:29:41;;;;;;;1.70;0.90;;;;;;;;;;4987101;28;20031;-88
2024/03/02 12:32:09;;;;;;;1.10;0.77;;;14.10;99.90;;;;;;4991269;28;20029;-87
2024/03/02 12:34:35;;;;;;;3.40;1.23;;;;;;;;;;4991276;28;20022;-89
2024/03/02 12:37:01;;;;;;;3.55;2.08;;;;;;;;;;4990646;28;20023;-88
2024/03/02 12:39:27;;;;;;;5.72;3.15;;;;;;;;;;4981567;28;20058;-88
2024/03/02 12:49:26;;;;;;;1.75;0.98;;;14.00;99.90;;;;;;4844122;29;20029;-88
2024/03/02 13:10:32;;;;;;;4.28;1.70;;;14.20;99.90;;;;;;5026370;28;20562;-87
2024/03/02 13:13:23;;;;;;;3.17;1.58;;;14.20;99.90;;;;;;5010177;28;20094;-85
2024/03/02 13:15:55;;;;;;;3.10;1.50;;;14.20;99.90;;;;;;5018959;28;20026;-87
2024/03/02 13:18:22;;;;;;;2.67;1.30;;;14.20;99.90;;;;;;5031366;28;20052;-85
2024/03/02 13:20:48;;;;;;;4.18;1.55;;;14.20;99.90;;;;;;5005351;28;20023;-85
2024/03/02 13:23:14;;;;;;;2.58;1.58;;;14.20;99.90;;;;;;5007042;28;20029;-83
2024/03/02 13:25:43;;;;;;;2.92;1.42;;;14.20;99.90;;;;;;5009991;28;20080;-83
2024/03/02 13:28:11;;;;;;;2.55;1.50;;;14.20;99.90;;;;;;5024720;28;20022;-85
2024/03/02 13:30:37;;;;;;;3.55;1.60;;;;;;;;;;5024349;28;20041;-87
2024/03/02 13:33:06;;;;;;;2.70;1.50;;;;;;;;;;5004524;28;20062;-85
2024/03/02 13:35:32;;;;;;;3.10;1.48;;;;;;;;;;4986719;28;20035;-84
2024/03/02 13:37:58;;;;;;;3.15;1.88;;;;;;;;;;4986838;28;20634;-86
2024/03/02 13:40:24;;;;;;;3.22;1.25;;;;;;;;;;4986413;28;20031;-84
2024/03/02 13:42:54;;;;;;;2.92;1.70;;;;;;;;;;4968309;28;20031;-83
2024/03/02 13:45:19;;;;;;;2.22;1.48;;;13.80;99.90;;;;;;5007270;28;20022;-88